Time;durP1;ratioP1;P1;durP2;ratioP2;P2;SDS_P1;SDS_P2;PMS_P1;PMS_P2;Temp;Humidity;BMP_temperature;BMP_pressure;BME280_temperature;BME280_humidity;BME280_pressure;Samples;Min_cycle;Max_cycle;Signal;HPM_P1;HPM_P2
2021/03/11 00:02:37;;;;;;;27.23;18.47;;;;;;;;;;5120184;28;20315;-33
2021/03/11 00:05:25;;;;;;;24.10;18.23;;;;;;;;;;5120154;28;20226;-34
2021/03/11 00:08:11;;;;;;;22.70;18.27;;;;;;;;;;5120409;28;20488;-35
2021/03/11 00:10:56;;;;;;;26.33;17.40;;;;;;;;;;5119697;28;20214;-33
2021/03/11 00:13:44;;;;;;;24.73;17.27;;;;;;;;;;5120026;28;20202;-36
2021/03/11 00:16:31;;;;;;;23.23;17.33;;;;;;;;;;5119580;28;20290;-39
2021/03/11 00:19:17;;;;;;;27.17;18.37;;;;;;;;;;5119748;28;20286;-33
2021/03/11 00:22:03;;;;;;;25.70;18.80;;;;;;;;;;5120160;28;20596;-36
2021/03/11 00:24:49;;;;;;;26.73;19.23;;;;;;;;;;5119981;28;20229;-34
2021/03/11 00:27:34;;;;;;;24.97;18.07;;;;;;;;;;5119903;28;20206;-35
2021/03/11 00:30:23;;;;;;;27.87;19.23;;;;;;;;;;5119632;28;20284;-37
2021/03/11 00:33:13;;;;;;;25.47;18.67;;;;;;;;;;5119803;28;20291;-36
2021/03/11 00:36:00;;;;;;;26.50;19.30;;;;;;;;;;5119409;28;20297;-38
2021/03/11 00:38:46;;;;;;;26.40;16.03;;;;;;;;;;5119353;28;20623;-33
2021/03/11 00:41:32;;;;;;;21.97;16.80;;;;;;;;;;5119252;28;20194;-39
2021/03/11 00:44:18;;;;;;;23.70;17.83;;;;;;;;;;5119330;28;20195;-36
2021/03/11 00:47:04;;;;;;;27.07;18.90;;;;;;;;;;5119447;28;20282;-36
2021/03/11 00:49:51;;;;;;;25.13;17.17;;;;;;;;;;5119072;28;20204;-37
2021/03/11 00:52:37;;;;;;;23.20;16.67;;;;;;;;;;5119434;28;20352;-36
2021/03/11 00:55:22;;;;;;;23.60;19.33;;;;;;;;;;5119441;28;20233;-38
2021/03/11 00:58:08;;;;;;;22.70;17.33;;;;;;;;;;5119237;28;20206;-39
2021/03/11 01:00:54;;;;;;;24.40;17.17;;;;;;;;;;5119093;28;20202;-37
2021/03/11 01:03:40;;;;;;;22.90;15.43;;;;;;;;;;5119115;28;20603;-38
2021/03/11 01:06:29;;;;;;;22.87;16.60;;;;;;;;;;5118916;28;20230;-34
2021/03/11 01:09:14;;;;;;;20.50;15.43;;;;;;;;;;5118646;28;20559;-34
2021/03/11 01:12:00;;;;;;;19.67;15.63;;;;;;;;;;5119096;28;20202;-37
2021/03/11 01:14:46;;;;;;;21.27;14.40;;;;;;;;;;5119144;28;20237;-36
2021/03/11 01:17:34;;;;;;;23.10;17.33;;;;;;;;;;5118915;28;20198;-35
2021/03/11 01:20:22;;;;;;;23.80;16.90;;;;;;;;;;5118793;28;20198;-38
2021/03/11 01:23:10;;;;;;;23.17;16.00;;;;;;;;;;5118402;28;20623;-33
2021/03/11 01:25:58;;;;;;;21.87;15.30;;;;;;;;;;5118497;28;20234;-36
2021/03/11 01:28:43;;;;;;;22.93;15.97;;;;;;;;;;5118442;28;20206;-36
2021/03/11 01:31:32;;;;;;;22.67;14.73;;;;;;;;;;5118443;28;20609;-38
2021/03/11 01:34:18;;;;;;;18.83;15.97;;;;;;;;;;5119230;28;20222;-34
2021/03/11 01:37:04;;;;;;;22.57;15.00;;;;;;;;;;5118625;28;20480;-36
2021/03/11 01:39:51;;;;;;;20.03;13.97;;;;;;;;;;5118455;28;20194;-35
2021/03/11 01:42:36;;;;;;;22.47;15.40;;;;;;;;;;5118200;28;20360;-35
2021/03/11 01:45:22;;;;;;;23.63;16.97;;;;;;;;;;5118361;28;20222;-35
2021/03/11 01:48:09;;;;;;;22.20;16.43;;;;;;;;;;5118096;28;20202;-35
2021/03/11 01:50:54;;;;;;;23.57;16.17;;;;;;;;;;5118289;28;20214;-38
2021/03/11 01:53:40;;;;;;;22.17;15.00;;;;;;;;;;5118310;28;20199;-37
2021/03/11 01:56:27;;;;;;;22.27;14.73;;;;;;;;;;5118181;28;20241;-37
2021/03/11 01:59:13;;;;;;;21.13;16.93;;;;;;;;;;5118175;28;20655;-35
2021/03/11 02:02:00;;;;;;;21.03;15.07;;;;;;;;;;5117220;28;20652;-34
2021/03/11 02:04:46;;;;;;;20.40;13.73;;;;;;;;;;5118760;28;20296;-35
2021/03/11 02:07:31;;;;;;;16.47;12.70;;;;;;;;;;5118084;28;20246;-35
2021/03/11 02:10:21;;;;;;;18.53;14.97;;;;;;;;;;5117868;28;20198;-35
2021/03/11 02:13:21;;;;;;;19.90;15.20;;;;;;;;;;5117679;28;20619;-35
2021/03/11 02:16:12;;;;;;;19.23;13.80;;;;;;;;;;5117695;28;20481;-33
2021/03/11 02:19:02;;;;;;;18.47;13.50;;;;;;;;;;5118014;28;20202;-36
2021/03/11 02:21:48;;;;;;;18.80;13.73;;;;;;;;;;5117828;28;20199;-35
2021/03/11 02:24:43;;;;;;;19.27;13.13;;;;;;;;;;5117491;28;20484;-33
2021/03/11 02:27:38;;;;;;;21.77;14.13;;;;;;;;;;5117395;28;20283;-34
2021/03/11 02:30:25;;;;;;;20.77;13.00;;;;;;;;;;5117568;28;20198;-34
2021/03/11 02:33:14;;;;;;;17.10;12.80;;;;;;;;;;5117780;28;20202;-35
2021/03/11 02:36:01;;;;;;;16.50;12.33;;;;;;;;;;5117017;28;20608;-35
2021/03/11 02:38:47;;;;;;;16.50;11.87;;;;;;;;;;5117564;28;20198;-33
2021/03/11 02:41:34;;;;;;;17.23;12.93;;;;;;;;;;5117239;28;20261;-37
2021/03/11 02:44:20;;;;;;;14.33;10.70;;;;;;;;;;5117549;28;20198;-33
2021/03/11 02:47:08;;;;;;;16.97;13.27;;;;;;;;;;5117387;28;20588;-35
2021/03/11 02:49:55;;;;;;;17.03;11.70;;;;;;;;;;5117338;28;20202;-36
2021/03/11 02:52:41;;;;;;;14.60;11.73;;;;;;;;;;5117483;28;20337;-32
2021/03/11 02:55:40;;;;;;;16.47;12.13;;;;;;;;;;5117159;28;20727;-32
2021/03/11 02:58:26;;;;;;;16.30;11.67;;;;;;;;;;5117424;28;20484;-32
2021/03/11 03:01:15;;;;;;;12.50;10.20;;;;;;;;;;5116978;28;20215;-33
2021/03/11 03:04:02;;;;;;;14.57;10.80;;;;;;;;;;5117262;28;20203;-34
2021/03/11 03:06:48;;;;;;;16.07;11.27;;;;;;;;;;5117450;28;20312;-36
2021/03/11 03:09:34;;;;;;;11.77;10.53;;;;;;;;;;5117431;28;20201;-34
2021/03/11 03:12:22;;;;;;;15.97;11.37;;;;;;;;;;5117345;28;20202;-37
2021/03/11 03:15:09;;;;;;;13.30;10.93;;;;;;;;;;5117422;28;20508;-34
2021/03/11 03:17:56;;;;;;;14.57;10.63;;;;;;;;;;5117352;28;20196;-33
2021/03/11 03:20:43;;;;;;;14.03;10.63;;;;;;;;;;5117210;28;20254;-34
2021/03/11 03:23:29;;;;;;;13.03;10.00;;;;;;;;;;5116755;28;20488;-32
2021/03/11 03:26:14;;;;;;;14.07;10.07;;;;;;;;;;5117199;28;20230;-34
2021/03/11 03:29:00;;;;;;;16.00;10.23;;;;;;;;;;5117183;28;20203;-33
2021/03/11 03:31:46;;;;;;;12.93;10.17;;;;;;;;;;5117207;28;20204;-33
2021/03/11 03:34:37;;;;;;;11.73;9.43;;;;;;;;;;5117150;28;20280;-34
2021/03/11 03:37:26;;;;;;;11.77;9.37;;;;;;;;;;5116915;28;20195;-34
2021/03/11 03:40:13;;;;;;;12.30;9.17;;;;;;;;;;5117083;28;20205;-36
2021/03/11 03:43:01;;;;;;;13.13;9.90;;;;;;;;;;5117056;28;20229;-33
2021/03/11 03:45:52;;;;;;;14.07;9.47;;;;;;;;;;5117445;28;20794;-35
2021/03/11 03:48:39;;;;;;;13.93;9.70;;;;;;;;;;5120590;28;20283;-33
2021/03/11 03:51:27;;;;;;;9.80;8.63;;;;;;;;;;5120745;28;20210;-33
2021/03/11 03:54:15;;;;;;;10.10;8.43;;;;;;;;;;5120724;28;20273;-33
2021/03/11 03:57:03;;;;;;;9.80;7.97;;;;;;;;;;5120676;28;20467;-35
2021/03/11 03:59:50;;;;;;;12.03;8.63;;;;;;;;;;5120349;28;20220;-34
2021/03/11 04:02:37;;;;;;;10.90;9.27;;;;;;;;;;5120363;28;20714;-36
2021/03/11 04:05:24;;;;;;;11.53;9.80;;;;;;;;;;5120466;28;20221;-33
2021/03/11 04:08:10;;;;;;;12.30;9.13;;;;;;;;;;5120178;28;20207;-34
2021/03/11 04:10:57;;;;;;;10.17;7.93;;;;;;;;;;5119998;28;20216;-37
2021/03/11 04:13:43;;;;;;;10.13;7.77;;;;;;;;;;5120212;28;20313;-37
2021/03/11 04:16:29;;;;;;;10.70;8.17;;;;;;;;;;5120083;28;20199;-34
2021/03/11 04:19:16;;;;;;;9.37;8.37;;;;;;;;;;5120055;28;20202;-35
2021/03/11 04:22:02;;;;;;;11.00;8.20;;;;;;;;;;5120189;28;20198;-33
2021/03/11 04:24:49;;;;;;;10.97;8.37;;;;;;;;;;5120045;28;20197;-31
2021/03/11 04:27:36;;;;;;;8.20;7.37;;;;;;;;;;5120089;28;20198;-32
2021/03/11 04:30:22;;;;;;;9.27;7.90;;;;;;;;;;5119978;28;20190;-34
2021/03/11 04:33:08;;;;;;;9.83;7.80;;;;;;;;;;5119931;28;20195;-32
2021/03/11 04:35:55;;;;;;;10.20;7.97;;;;;;;;;;5119914;28;20253;-35
2021/03/11 04:38:43;;;;;;;12.43;8.37;;;;;;;;;;5119485;28;20610;-31
2021/03/11 04:41:29;;;;;;;1075.27;471.43;;;;;;;;;;5119537;28;20515;-37
2021/03/11 04:44:16;;;;;;;1999.90;999.90;;;;;;;;;;5119399;28;20198;-33
2021/03/11 04:47:02;;;;;;;1999.90;999.90;;;;;;;;;;5119430;28;20500;-36
2021/03/11 04:49:49;;;;;;;1999.90;999.90;;;;;;;;;;5119283;28;20538;-32
2021/03/11 04:52:35;;;;;;;1999.90;999.90;;;;;;;;;;5119160;28;20204;-31
2021/03/11 04:55:21;;;;;;;1999.90;999.90;;;;;;;;;;5119430;28;20597;-33
2021/03/11 04:58:07;;;;;;;1999.90;999.90;;;;;;;;;;5118278;28;20202;-32
2021/03/11 05:00:56;;;;;;;1999.90;999.90;;;;;;;;;;5119335;28;20612;-33
2021/03/11 05:03:45;;;;;;;1999.90;999.90;;;;;;;;;;5118579;28;20206;-33
2021/03/11 05:06:30;;;;;;;1999.90;999.90;;;;;;;;;;5118121;28;20645;-35
2021/03/11 05:09:16;;;;;;;1999.90;999.90;;;;;;;;;;5118620;28;20604;-34
2021/03/11 05:12:03;;;;;;;1999.90;999.90;;;;;;;;;;5118591;28;20199;-37
2021/03/11 05:14:50;;;;;;;1999.90;999.90;;;;;;;;;;5118533;28;20194;-35
2021/03/11 05:17:38;;;;;;;1999.90;999.90;;;;;;;;;;5118548;28;20199;-34
2021/03/11 05:20:25;;;;;;;1999.90;999.90;;;;;;;;;;5118470;28;20195;-33
2021/03/11 05:23:12;;;;;;;1999.90;999.90;;;;;;;;;;5118251;28;20199;-33
2021/03/11 05:25:58;;;;;;;332.60;307.03;;;;;;;;;;5118204;28;20655;-34
2021/03/11 05:28:43;;;;;;;346.30;314.17;;;;;;;;;;5118434;28;20203;-35
2021/03/11 05:31:29;;;;;;;23.07;21.47;;;;;;;;;;5118545;28;20206;-32
2021/03/11 05:34:22;;;;;;;132.07;120.60;;;;;;;;;;5118297;28;20189;-34
2021/03/11 05:37:08;;;;;;;45.13;42.17;;;;;;;;;;5118087;28;20260;-37
2021/03/11 05:39:56;;;;;;;78.30;73.60;;;;;;;;;;5118039;28;20199;-35
2021/03/11 05:42:44;;;;;;;1953.93;991.73;;;;;;;;;;5117783;28;20198;-33
2021/03/11 05:45:29;;;;;;;1991.10;443.27;;;;;;;;;;5118167;28;20242;-37
2021/03/11 05:48:16;;;;;;;1999.90;999.90;;;;;;;;;;5118382;28;20198;-35
2021/03/11 05:51:03;;;;;;;1999.90;999.90;;;;;;;;;;5118101;28;20357;-36
2021/03/11 05:53:51;;;;;;;216.40;199.70;;;;;;;;;;5117547;28;20198;-37
2021/03/11 05:56:38;;;;;;;301.93;276.03;;;;;;;;;;5117611;28;20304;-38
2021/03/11 05:59:24;;;;;;;426.27;375.73;;;;;;;;;;5118205;28;20264;-39
2021/03/11 06:02:10;;;;;;;395.50;183.23;;;;;;;;;;5117570;28;20222;-40
2021/03/11 06:04:56;;;;;;;92.50;86.57;;;;;;;;;;5117455;28;20195;-41
2021/03/11 06:07:44;;;;;;;8.10;7.00;;;;;;;;;;5117848;28;20191;-41
2021/03/11 06:10:30;;;;;;;283.70;209.40;;;;;;;;;;5116990;28;20203;-42
2021/03/11 06:13:16;;;;;;;675.87;349.17;;;;;;;;;;5117464;28;20199;-41
2021/03/11 06:16:03;;;;;;;1999.90;999.90;;;;;;;;;;5117535;28;20589;-42
2021/03/11 06:18:50;;;;;;;1999.90;999.90;;;;;;;;;;5116968;28;20218;-41
2021/03/11 06:21:36;;;;;;;1999.90;999.90;;;;;;;;;;5116470;28;20608;-42
2021/03/11 06:24:22;;;;;;;1999.90;999.90;;;;;;;;;;5117031;28;20202;-43
2021/03/11 06:27:11;;;;;;;1999.90;999.90;;;;;;;;;;5117502;28;20245;-43
2021/03/11 06:29:57;;;;;;;1999.90;999.90;;;;;;;;;;5117598;28;20256;-43
2021/03/11 06:32:54;;;;;;;1999.90;999.90;;;;;;;;;;5117266;28;20206;-43
2021/03/11 06:35:42;;;;;;;1999.90;999.90;;;;;;;;;;5117077;28;20468;-43
2021/03/11 06:38:28;;;;;;;1999.90;999.90;;;;;;;;;;5117306;28;20194;-43
2021/03/11 06:41:15;;;;;;;1999.90;999.90;;;;;;;;;;5116885;28;20399;-43
2021/03/11 06:44:03;;;;;;;1999.90;999.90;;;;;;;;;;5116738;28;20200;-43
2021/03/11 06:47:01;;;;;;;1999.90;999.90;;;;;;;;;;5116781;28;20264;-44
2021/03/11 06:49:55;;;;;;;1999.90;999.90;;;;;;;;;;5116568;28;20469;-43
2021/03/11 06:53:00;;;;;;;1999.90;999.90;;;;;;;;;;5116994;28;20197;-44
2021/03/11 06:55:45;;;;;;;1999.90;999.90;;;;;;;;;;5117118;28;20260;-44
2021/03/11 06:58:54;;;;;;;1999.90;999.90;;;;;;;;;;5116483;28;20194;-43
2021/03/11 07:01:48;;;;;;;1999.90;999.90;;;;;;;;;;5117253;28;20328;-43
2021/03/11 07:04:34;;;;;;;1999.90;999.90;;;;;;;;;;5116157;28;20288;-44
2021/03/11 07:07:23;;;;;;;1999.90;999.90;;;;;;;;;;5116305;28;20202;-44
2021/03/11 07:10:22;;;;;;;1999.90;999.90;;;;;;;;;;5116246;28;20203;-43
2021/03/11 07:13:11;;;;;;;1999.90;999.90;;;;;;;;;;5116833;28;20205;-44
2021/03/11 07:15:57;;;;;;;1999.90;999.90;;;;;;;;;;5116024;28;20228;-43
2021/03/11 07:18:46;;;;;;;1999.90;999.90;;;;;;;;;;5116762;28;20203;-44
2021/03/11 07:21:40;;;;;;;1999.90;999.90;;;;;;;;;;5118715;28;20301;-43
2021/03/11 07:24:32;;;;;;;1999.90;999.90;;;;;;;;;;5120712;28;20199;-43
2021/03/11 07:27:18;;;;;;;1999.90;999.90;;;;;;;;;;5120798;28;20194;-44
2021/03/11 07:30:04;;;;;;;1999.90;999.90;;;;;;;;;;5120309;28;20215;-43
2021/03/11 07:32:51;;;;;;;1999.90;999.90;;;;;;;;;;5120263;28;20608;-44
2021/03/11 07:35:37;;;;;;;1999.90;999.90;;;;;;;;;;5120051;28;20197;-43
2021/03/11 07:38:24;;;;;;;1999.90;999.90;;;;;;;;;;5119980;28;20249;-43
2021/03/11 07:41:13;;;;;;;1999.90;999.90;;;;;;;;;;5119271;28;20297;-43
2021/03/11 07:44:00;;;;;;;1999.90;999.90;;;;;;;;;;5119414;28;20241;-43
2021/03/11 07:46:50;;;;;;;1999.90;999.90;;;;;;;;;;5119789;28;20191;-43
2021/03/11 07:49:37;;;;;;;1999.90;999.90;;;;;;;;;;5119372;28;20195;-42
2021/03/11 07:52:25;;;;;;;1999.90;999.90;;;;;;;;;;5119427;28;20198;-43
2021/03/11 07:55:11;;;;;;;1999.90;999.90;;;;;;;;;;5118836;28;20201;-44
2021/03/11 07:57:58;;;;;;;1999.90;999.90;;;;;;;;;;5119321;28;20204;-44
2021/03/11 08:00:43;;;;;;;1999.90;999.90;;;;;;;;;;5119424;28;20198;-43
2021/03/11 08:03:32;;;;;;;1999.90;999.90;;;;;;;;;;5118585;28;20519;-43
2021/03/11 08:06:20;;;;;;;1999.90;999.90;;;;;;;;;;5119094;28;20494;-43
2021/03/11 08:09:07;;;;;;;1999.90;999.90;;;;;;;;;;5118918;28;20202;-44
2021/03/11 08:11:52;;;;;;;1999.90;999.90;;;;;;;;;;5118398;28;20256;-44
2021/03/11 08:14:41;;;;;;;1999.90;999.90;;;;;;;;;;5121380;27;20194;-44
2021/03/11 08:17:40;;;;;;;1999.90;999.90;;;;;;;;;;5139863;27;20226;-44
2021/03/11 08:20:37;;;;;;;1999.90;999.90;;;;;;;;;;5139961;27;20256;-44
2021/03/11 08:23:28;;;;;;;1999.90;999.90;;;;;;;;;;5138940;27;20205;-44
2021/03/11 08:26:33;;;;;;;1999.90;999.90;;;;;;;;;;5139437;27;20194;-43
2021/03/11 08:29:35;;;;;;;1999.90;999.90;;;;;;;;;;5139197;27;20212;-43
2021/03/11 08:32:37;;;;;;;1999.90;999.90;;;;;;;;;;5136289;27;20267;-43
2021/03/11 08:35:41;;;;;;;1999.90;999.90;;;;;;;;;;5119796;28;20202;-43
2021/03/11 08:38:40;;;;;;;1999.90;999.90;;;;;;;;;;5125763;27;20285;-43
2021/03/11 08:41:31;;;;;;;1999.90;999.90;;;;;;;;;;5139684;27;20474;-44
2021/03/11 08:44:36;;;;;;;1999.90;999.90;;;;;;;;;;5139091;27;20263;-44
2021/03/11 08:47:23;;;;;;;1999.90;999.90;;;;;;;;;;5129002;27;20198;-44
2021/03/11 08:50:08;;;;;;;1999.90;999.90;;;;;;;;;;5120105;27;20202;-44
2021/03/11 08:52:58;;;;;;;1999.90;999.90;;;;;;;;;;5118507;28;20211;-44
2021/03/11 08:55:45;;;;;;;1999.90;999.90;;;;;;;;;;5117997;28;20300;-44
2021/03/11 08:58:32;;;;;;;1999.90;999.90;;;;;;;;;;5118498;28;20596;-43
2021/03/11 09:01:33;;;;;;;1999.90;999.90;;;;;;;;;;5118288;28;20203;-44
2021/03/11 09:04:37;;;;;;;1999.90;999.90;;;;;;;;;;5077962;28;20349;-44
2021/03/11 09:07:30;;;;;;;1999.90;999.90;;;;;;;;;;5077624;28;20250;-43
2021/03/11 09:10:23;;;;;;;1999.90;999.90;;;;;;;;;;5077534;28;20219;-44
2021/03/11 09:13:12;;;;;;;1999.90;999.90;;;;;;;;;;5077499;28;20222;-43
2021/03/11 09:15:59;;;;;;;1999.90;999.90;;;;;;;;;;5077191;28;20219;-43
2021/03/11 09:18:45;;;;;;;1999.90;999.90;;;;;;;;;;5076972;28;20219;-43
2021/03/11 09:21:38;;;;;;;1999.90;999.90;;;;;;;;;;5077060;28;20203;-44
2021/03/11 09:24:25;;;;;;;1999.90;999.90;;;;;;;;;;5077277;28;20464;-43
2021/03/11 09:27:14;;;;;;;1999.90;999.90;;;;;;;;;;5077039;28;20196;-43
2021/03/11 09:30:03;;;;;;;1999.90;999.90;;;;;;;;;;5076944;28;20713;-44
2021/03/11 09:32:48;;;;;;;1999.90;999.90;;;;;;;;;;5076958;28;20200;-43
2021/03/11 09:35:35;;;;;;;1999.90;999.90;;;;;;;;;;5076601;28;20603;-43
2021/03/11 09:38:21;;;;;;;1999.90;999.90;;;;;;;;;;5076678;28;20361;-42
2021/03/11 09:41:09;;;;;;;1999.90;999.90;;;;;;;;;;5076830;28;20474;-43
2021/03/11 09:44:02;;;;;;;1999.90;999.90;;;;;;;;;;5076384;28;20362;-43
2021/03/11 09:46:50;;;;;;;1999.90;999.90;;;;;;;;;;5076824;28;20200;-43
2021/03/11 09:49:36;;;;;;;1999.90;999.90;;;;;;;;;;5076671;28;20200;-43
2021/03/11 09:52:22;;;;;;;1999.90;999.90;;;;;;;;;;5076071;28;20199;-43
2021/03/11 09:55:09;;;;;;;1999.90;999.90;;;;;;;;;;5076056;28;20708;-44
2021/03/11 09:57:56;;;;;;;1999.90;999.90;;;;;;;;;;5075944;28;20227;-43
2021/03/11 10:00:48;;;;;;;1999.90;999.90;;;;;;;;;;5076432;28;20601;-44
2021/03/11 10:03:36;;;;;;;1999.90;999.90;;;;;;;;;;5112229;28;20234;-43
2021/03/11 10:06:22;;;;;;;1999.90;999.90;;;;;;;;;;5129766;27;20530;-43
2021/03/11 10:09:09;;;;;;;1999.90;999.90;;;;;;;;;;5137646;27;20595;-44
2021/03/11 10:11:55;;;;;;;1999.90;999.90;;;;;;;;;;5138150;27;20203;-44
2021/03/11 10:14:44;;;;;;;1999.90;999.90;;;;;;;;;;5137133;27;20266;-43
2021/03/11 10:17:30;;;;;;;1999.90;999.90;;;;;;;;;;5137489;27;20222;-43
2021/03/11 10:20:25;;;;;;;1999.90;999.90;;;;;;;;;;5137376;27;20206;-43
2021/03/11 10:23:15;;;;;;;1999.90;999.90;;;;;;;;;;5137576;27;20202;-42
2021/03/11 10:26:25;;;;;;;1999.90;999.90;;;;;;;;;;5137693;27;20213;-44
2021/03/11 10:29:11;;;;;;;1999.90;999.90;;;;;;;;;;5125498;27;20206;-43
2021/03/11 10:31:57;;;;;;;1999.90;999.90;;;;;;;;;;5137222;27;20198;-43
2021/03/11 10:34:47;;;;;;;1999.90;999.90;;;;;;;;;;5137183;27;20348;-44
2021/03/11 10:37:36;;;;;;;1999.90;999.90;;;;;;;;;;5116788;28;20372;-44
2021/03/11 10:40:22;;;;;;;1999.90;999.90;;;;;;;;;;5116579;28;20194;-43
2021/03/11 10:43:16;;;;;;;1999.90;999.90;;;;;;;;;;5115932;28;20202;-44
2021/03/11 10:46:02;;;;;;;1999.90;999.90;;;;;;;;;;5115665;28;20198;-43
2021/03/11 10:48:49;;;;;;;1999.90;999.90;;;;;;;;;;5116151;28;20596;-43
2021/03/11 10:51:38;;;;;;;1999.90;999.90;;;;;;;;;;5116625;28;20202;-43
2021/03/11 10:54:29;;;;;;;1999.90;999.90;;;;;;;;;;5117014;28;20627;-43
2021/03/11 10:57:15;;;;;;;1999.90;999.90;;;;;;;;;;5119491;28;20231;-43
2021/03/11 11:00:03;;;;;;;1999.90;999.90;;;;;;;;;;5120564;28;20217;-43
2021/03/11 11:02:52;;;;;;;1999.90;999.90;;;;;;;;;;5119598;28;20241;-43
2021/03/11 11:05:38;;;;;;;1999.90;999.90;;;;;;;;;;5120041;28;20208;-43
2021/03/11 11:08:24;;;;;;;1999.90;999.90;;;;;;;;;;5120366;28;20194;-43
2021/03/11 11:11:11;;;;;;;1999.90;999.90;;;;;;;;;;5120534;28;20260;-43
2021/03/11 11:13:57;;;;;;;1999.90;999.90;;;;;;;;;;5120359;28;20248;-43
2021/03/11 11:16:42;;;;;;;1999.90;999.90;;;;;;;;;;5120372;28;20229;-43
2021/03/11 11:19:29;;;;;;;1999.90;999.90;;;;;;;;;;5120665;28;20591;-42
2021/03/11 11:22:23;;;;;;;1999.90;999.90;;;;;;;;;;5120033;28;20202;-43
2021/03/11 11:25:13;;;;;;;1999.90;999.90;;;;;;;;;;5119918;28;20351;-43
2021/03/11 11:28:00;;;;;;;1999.90;999.90;;;;;;;;;;5120328;28;20190;-42
2021/03/11 11:30:46;;;;;;;1999.90;999.90;;;;;;;;;;5120085;28;20646;-43
2021/03/11 11:33:36;;;;;;;1999.90;999.90;;;;;;;;;;5120907;28;20198;-43
2021/03/11 11:36:22;;;;;;;1999.90;999.90;;;;;;;;;;5119569;28;20292;-43
2021/03/11 11:39:07;;;;;;;1999.90;999.90;;;;;;;;;;5119972;28;20198;-42
2021/03/11 11:41:54;;;;;;;1999.90;999.90;;;;;;;;;;5119795;27;20203;-42
2021/03/11 11:44:44;;;;;;;1999.90;999.90;;;;;;;;;;5130059;27;20348;-42
2021/03/11 11:47:31;;;;;;;1999.90;999.90;;;;;;;;;;5137863;27;20190;-42
2021/03/11 11:50:23;;;;;;;1999.90;999.90;;;;;;;;;;5140018;27;20202;-43
2021/03/11 11:53:08;;;;;;;1999.90;999.90;;;;;;;;;;5123091;27;20245;-42
2021/03/11 11:55:54;;;;;;;1999.90;999.90;;;;;;;;;;5120790;27;20904;-42
2021/03/11 11:58:44;;;;;;;1999.90;999.90;;;;;;;;;;5120078;27;20407;-52
2021/03/11 12:01:31;;;;;;;1999.90;999.90;;;;;;;;;;5136713;27;20194;-42
2021/03/11 12:04:17;;;;;;;1999.90;999.90;;;;;;;;;;5130193;27;20239;-41
2021/03/11 12:07:06;;;;;;;1999.90;999.90;;;;;;;;;;5139395;27;20272;-44
2021/03/11 12:09:58;;;;;;;1999.90;999.90;;;;;;;;;;5120521;27;20261;-43
2021/03/11 12:12:49;;;;;;;1999.90;999.90;;;;;;;;;;5129393;27;20260;-42
2021/03/11 12:15:34;;;;;;;1999.90;999.90;;;;;;;;;;5119691;28;20284;-40
2021/03/11 12:18:24;;;;;;;1999.90;999.90;;;;;;;;;;5129677;27;20225;-40
2021/03/11 12:21:11;;;;;;;1999.90;999.90;;;;;;;;;;5131591;27;20280;-41
2021/03/11 12:24:04;;;;;;;1999.90;999.90;;;;;;;;;;5127987;27;20207;-41
2021/03/11 12:26:54;;;;;;;1999.90;999.90;;;;;;;;;;5125442;27;20209;-39
2021/03/11 12:29:45;;;;;;;1999.90;999.90;;;;;;;;;;5130053;27;20201;-40
2021/03/11 12:32:40;;;;;;;1999.90;999.90;;;;;;;;;;5134578;27;20324;-41
2021/03/11 12:35:28;;;;;;;1999.90;999.90;;;;;;;;;;5135218;27;20270;-39
2021/03/11 12:38:14;;;;;;;1999.90;999.90;;;;;;;;;;5130587;27;20230;-40
2021/03/11 12:40:59;;;;;;;1999.90;999.90;;;;;;;;;;5128838;27;20199;-41
2021/03/11 12:43:45;;;;;;;1999.90;999.90;;;;;;;;;;5118822;28;20219;-41
2021/03/11 12:46:31;;;;;;;1999.90;999.90;;;;;;;;;;5133656;27;20204;-37
2021/03/11 12:49:17;;;;;;;1999.90;999.90;;;;;;;;;;5136560;27;20210;-38
2021/03/11 12:52:04;;;;;;;1999.90;999.90;;;;;;;;;;5135145;27;20197;-40
2021/03/11 12:54:51;;;;;;;1999.90;999.90;;;;;;;;;;5139092;27;20609;-42
2021/03/11 12:57:38;;;;;;;1999.90;999.90;;;;;;;;;;5126436;27;20683;-40
2021/03/11 13:00:24;;;;;;;1999.90;999.90;;;;;;;;;;5124559;27;20854;-41
2021/03/11 13:03:21;;;;;;;1999.90;999.90;;;;;;;;;;5122967;27;20262;-40
2021/03/11 13:06:09;;;;;;;1999.90;999.90;;;;;;;;;;5128277;27;20210;-40
2021/03/11 13:08:57;;;;;;;1999.90;999.90;;;;;;;;;;5118946;28;20215;-41
2021/03/11 13:11:43;;;;;;;1999.90;999.90;;;;;;;;;;5118996;28;20633;-41
2021/03/11 13:14:28;;;;;;;1999.90;999.90;;;;;;;;;;5118843;28;20200;-37
2021/03/11 13:17:14;;;;;;;1999.90;999.90;;;;;;;;;;5118092;28;20226;-40
2021/03/11 13:20:03;;;;;;;1999.90;999.90;;;;;;;;;;5117260;28;20545;-40
2021/03/11 13:22:48;;;;;;;1999.90;999.90;;;;;;;;;;5116279;28;20195;-37
2021/03/11 13:25:37;;;;;;;1999.90;999.90;;;;;;;;;;5117209;28;20198;-37
2021/03/11 13:28:23;;;;;;;1999.90;999.90;;;;;;;;;;5116328;28;20191;-35
2021/03/11 13:31:13;;;;;;;1999.90;999.90;;;;;;;;;;5127310;27;20202;-40
2021/03/11 13:34:00;;;;;;;1999.90;999.90;;;;;;;;;;5118237;27;20566;-35
2021/03/11 13:36:46;;;;;;;1999.90;999.90;;;;;;;;;;5132219;27;20217;-37
2021/03/11 13:39:32;;;;;;;1999.90;999.90;;;;;;;;;;5136438;27;20285;-35
2021/03/11 13:42:18;;;;;;;1999.90;999.90;;;;;;;;;;5137032;27;20304;-41
2021/03/11 13:45:05;;;;;;;1999.90;999.90;;;;;;;;;;5137607;27;20202;-41
2021/03/11 13:47:52;;;;;;;1999.90;999.90;;;;;;;;;;5137780;27;20331;-39
2021/03/11 13:50:41;;;;;;;1999.90;999.90;;;;;;;;;;5138071;27;20198;-38
2021/03/11 13:53:27;;;;;;;1999.90;999.90;;;;;;;;;;5138243;27;20225;-37
2021/03/11 13:56:13;;;;;;;1999.90;999.90;;;;;;;;;;5137936;27;20205;-40
2021/03/11 13:59:00;;;;;;;1999.90;999.90;;;;;;;;;;5137295;27;20201;-38
2021/03/11 14:01:46;;;;;;;1999.90;999.90;;;;;;;;;;5136306;27;20347;-35
2021/03/11 14:04:32;;;;;;;1999.90;999.90;;;;;;;;;;5137071;27;20265;-39
2021/03/11 14:07:23;;;;;;;1999.90;999.90;;;;;;;;;;5136506;27;20197;-38
2021/03/11 14:10:21;;;;;;;1999.90;999.90;;;;;;;;;;5133869;27;20245;-41
2021/03/11 14:13:08;;;;;;;1999.90;999.90;;;;;;;;;;5117343;28;20199;-38
2021/03/11 14:15:57;;;;;;;1999.90;999.90;;;;;;;;;;5117164;28;20288;-39
2021/03/11 14:18:46;;;;;;;1999.90;999.90;;;;;;;;;;5136560;27;20233;-35
2021/03/11 14:21:35;;;;;;;1999.90;999.90;;;;;;;;;;5138145;27;20355;-34
2021/03/11 14:24:21;;;;;;;1999.90;999.90;;;;;;;;;;5137383;27;20607;-37
2021/03/11 14:27:07;;;;;;;1999.90;999.90;;;;;;;;;;5136780;27;20583;-36
2021/03/11 14:29:56;;;;;;;1999.90;999.90;;;;;;;;;;5137031;27;20185;-33
2021/03/11 14:32:44;;;;;;;1999.90;999.90;;;;;;;;;;5137807;27;20194;-36
2021/03/11 14:35:36;;;;;;;1999.90;999.90;;;;;;;;;;5138101;27;20201;-37
2021/03/11 14:38:32;;;;;;;1999.90;999.90;;;;;;;;;;5134149;27;20217;-39
2021/03/11 14:41:21;;;;;;;1999.90;999.90;;;;;;;;;;5118383;28;20628;-39
2021/03/11 14:44:07;;;;;;;1999.90;999.90;;;;;;;;;;5117430;28;20201;-37
2021/03/11 14:46:55;;;;;;;1999.90;999.90;;;;;;;;;;5116757;28;20678;-38
2021/03/11 14:49:45;;;;;;;1999.90;999.90;;;;;;;;;;5117243;28;20437;-35
2021/03/11 14:52:31;;;;;;;1999.90;999.90;;;;;;;;;;5117250;28;20264;-37
2021/03/11 14:55:20;;;;;;;1999.90;999.90;;;;;;;;;;5116753;28;20198;-41
2021/03/11 14:58:06;;;;;;;1999.90;999.90;;;;;;;;;;5116563;28;20346;-41
2021/03/11 15:00:52;;;;;;;1999.90;999.90;;;;;;;;;;5116641;28;20198;-41
2021/03/11 15:03:41;;;;;;;1999.90;999.90;;;;;;;;;;5116105;28;20238;-39
2021/03/11 15:06:30;;;;;;;1999.90;999.90;;;;;;;;;;5116294;28;20194;-36
2021/03/11 15:09:21;;;;;;;1999.90;999.90;;;;;;;;;;5116443;28;20232;-39
2021/03/11 15:12:07;;;;;;;1999.90;999.90;;;;;;;;;;5116222;28;20203;-37
2021/03/11 15:14:53;;;;;;;1999.90;999.90;;;;;;;;;;5115876;28;20239;-40
2021/03/11 15:17:38;;;;;;;1999.90;999.90;;;;;;;;;;5114697;28;20292;-39
2021/03/11 15:20:30;;;;;;;1999.90;999.90;;;;;;;;;;5116884;28;20194;-35
2021/03/11 15:23:16;;;;;;;1999.90;999.90;;;;;;;;;;5116628;28;20333;-37
2021/03/11 15:26:03;;;;;;;1999.90;999.90;;;;;;;;;;5116707;28;20763;-35
2021/03/11 15:28:49;;;;;;;1999.90;999.90;;;;;;;;;;5120906;28;20488;-40
2021/03/11 15:31:35;;;;;;;1999.90;999.90;;;;;;;;;;5118743;28;20341;-33
2021/03/11 15:34:24;;;;;;;1999.90;999.90;;;;;;;;;;5116848;28;20195;-39
2021/03/11 15:37:11;;;;;;;1999.90;999.90;;;;;;;;;;5100491;28;20242;-38
2021/03/11 15:39:59;;;;;;;1999.90;999.90;;;;;;;;;;5116661;28;20198;-37
2021/03/11 15:42:45;;;;;;;1999.90;999.90;;;;;;;;;;5121844;27;20255;-40
2021/03/11 15:45:33;;;;;;;1999.90;999.90;;;;;;;;;;5120031;28;20714;-38
2021/03/11 15:48:23;;;;;;;1999.90;999.90;;;;;;;;;;5126580;27;20206;-35
2021/03/11 15:51:09;;;;;;;1999.90;999.90;;;;;;;;;;5126810;27;20592;-38
2021/03/11 15:53:57;;;;;;;1999.90;999.90;;;;;;;;;;5128109;27;20208;-39